Allandale, Florida
Current Conditions -  °F | °C
As of 1:53 AM on Sunday 26 Oct 2014 (Local Time) from KDAB Reporting Station
Clear Clear  
Wind Chill: 56°   Ceiling: Unl
Heat Index: 56°   Visibility: 10mi
Dew Point: 54°   Wind: 0mph
Humidity: 93%   Direction: NA
Pressure: 29.98"   Gusts: NA
Location:  29.1486°N, 81.0301°W
Report Text: KDAB 260553Z 00000KT 10SM CLR 13/12 A2998 RMK AO2 SLP151 T01330122 10206 20133 57012
Loading
Personal Weather Stations






























Interactive Weather Map
Tropical Storm Tracking
New forecast layout! Learn more

10-Day Weather Forecast

Advertisements
Track Severe Weather on mobile